Time;durP1;ratioP1;P1;durP2;ratioP2;P2;SDS_P1;SDS_P2;PMS_P1;PMS_P2;Temp;Humidity;BMP_temperature;BMP_pressure;BME280_temperature;BME280_humidity;BME280_pressure;Samples;Min_cycle;Max_cycle;Signal;HPM_P1;HPM_P2
2024/04/25 00:00:48;;;;;;;16.75;11.93;;;;;;;;;;5265597;27;20013;-94
2024/04/25 00:03:20;;;;;;;16.45;10.38;;;;;;;;;;5217226;27;20003;-93
2024/04/25 00:05:46;;;;;;;16.98;11.57;;;;;;;;;;5217860;27;20003;-92
2024/04/25 00:08:22;;;;;;;17.92;12.25;;;;;;;;;;5219352;27;20008;-93
2024/04/25 00:10:50;;;;;;;17.83;12.07;;;;;;;;;;5232050;27;20013;-94
2024/04/25 00:13:25;;;;;;;15.30;11.40;;;;;;;;;;5252589;27;20002;-93
2024/04/25 00:15:55;;;;;;;17.75;11.90;;;;;;;;;;5253196;27;19998;-93
2024/04/25 00:31:02;;;;;;;17.60;13.60;;;;;;;;;;5357941;26;20033;-93
2024/04/25 00:33:28;;;;;;;18.90;12.73;;;;;;;;;;5325537;26;20041;-95
2024/04/25 00:35:55;;;;;;;21.63;13.63;;;;;;;;;;5325344;26;20091;-92
2024/04/25 00:41:43;;;;;;;22.48;13.30;;;;;;;;;;5360049;26;20012;-93
2024/04/25 00:44:16;;;;;;;23.02;13.88;;;;;;;;;;5326182;26;20056;-95
2024/04/25 00:46:45;;;;;;;20.02;13.00;;;;;;;;;;5327469;26;20013;-93
2024/04/25 00:49:14;;;;;;;18.13;12.50;;;;;;;;;;5327552;26;20013;-93
2024/04/25 00:51:47;;;;;;;19.45;13.93;;;;;;;;;;5321276;26;20037;-93
2024/04/25 00:54:13;;;;;;;19.20;12.98;;;;;;;;;;5334792;26;20013;-94
2024/04/25 00:56:56;;;;;;;22.63;14.52;;;;;;;;;;5328439;26;20037;-93
2024/04/25 01:05:25;;;;;;;22.33;14.82;;;;;;;;;;5321458;27;20042;-93
2024/04/25 01:17:03;;;;;;;20.10;12.98;;;;;;;;;;5214249;27;20019;-94
2024/04/25 01:25:42;;;;;;;23.00;14.70;;;;;;;;;;5211073;27;20011;-93
2024/04/25 01:28:40;;;;;;;19.75;13.80;;;;;;;;;;5185282;27;20004;-93
2024/04/25 01:31:13;;;;;;;20.00;13.88;;;;;;;;;;5212609;27;20004;-92
2024/04/25 01:33:39;;;;;;;19.83;13.57;;;;;;;;;;5212841;27;20028;-94
2024/04/25 01:36:06;;;;;;;19.00;13.48;;;;;;;;;;5212362;27;20015;-93
2024/04/25 01:38:55;;;;;;;19.52;13.45;;;;;;;;;;5212253;27;19996;-94
2024/04/25 01:41:24;;;;;;;18.83;13.43;;;;;;;;;;5155509;27;19995;-93
2024/04/25 01:43:53;;;;;;;17.65;13.15;;;;;;;;;;5212768;27;20003;-93
2024/04/25 01:46:34;;;;;;;25.80;15.43;;;;;;;;;;5211868;27;20011;-93
2024/04/25 01:49:14;;;;;;;22.55;14.93;;;;;;;;;;5205161;27;20023;-94
2024/04/25 01:51:44;;;;;;;23.15;15.60;;;;;;;;;;5237005;27;20002;-93
2024/04/25 01:54:19;;;;;;;21.50;14.82;;;;;;;;;;5291106;27;20020;-92
2024/04/25 02:00:20;;;;;;;18.70;12.65;;;;;;;;;;5317863;27;20004;-93
2024/04/25 02:02:52;;;;;;;23.00;14.45;;;;;;;;;;5318897;27;20010;-93
2024/04/25 02:07:59;;;;;;;22.17;14.38;;;;;;;;;;5445976;21;20000;-93
2024/04/25 02:10:25;;;;;;;22.17;13.95;;;;;;;;;;5326671;26;19997;-93
2024/04/25 02:13:22;;;;;;;22.80;15.25;;;;;;;;;;5323487;26;20357;-93
2024/04/25 02:15:48;;;;;;;21.65;14.90;;;;;;;;;;5323830;26;20004;-93
2024/04/25 02:18:33;;;;;;;20.70;15.02;;;;;;;;;;5323479;26;20001;-93
2024/04/25 02:26:44;;;;;;;17.92;12.35;;;;;;;;;;5354311;26;20369;-93
2024/04/25 02:32:14;;;;;;;16.50;12.38;;;;;;;;;;5370113;26;20011;-94
2024/04/25 02:38:01;;;;;;;26.10;19.33;;;;;;;;;;5354534;26;20030;-94
2024/04/25 02:40:27;;;;;;;30.30;15.57;;;;;;;;;;5323387;26;19997;-94
2024/04/25 02:43:30;;;;;;;25.65;17.00;;;;;;;;;;5324020;26;20000;-93
2024/04/25 02:45:59;;;;;;;22.15;14.80;;;;;;;;;;5341790;26;20474;-92
2024/04/25 02:48:25;;;;;;;22.02;14.63;;;;;;;;;;5323648;26;20007;-92
2024/04/25 02:57:27;;;;;;;24.05;17.63;;;;;;;;;;5354889;26;20012;-93
2024/04/25 02:59:59;;;;;;;21.75;17.38;;;;;;;;;;5353765;26;20001;-94
2024/04/25 03:02:50;;;;;;;21.48;15.15;;;;;;;;;;5324796;26;20001;-94
2024/04/25 03:08:41;;;;;;;25.90;19.15;;;;;;;;;;5376120;26;20052;-93
2024/04/25 03:14:04;;;;;;;19.88;15.20;;;;;;;;;;5258320;27;20006;-95
2024/04/25 03:16:39;;;;;;;23.27;16.08;;;;;;;;;;6045554;21;20017;-93
2024/04/25 03:31:22;;;;;;;26.00;16.30;;;;;;;;;;5214718;27;20047;-93
2024/04/25 03:34:10;;;;;;;22.52;15.43;;;;;;;;;;5187315;27;20188;-93
2024/04/25 03:39:57;;;;;;;21.17;14.80;;;;;;;;;;5113642;28;20042;-94
2024/04/25 03:42:23;;;;;;;24.23;14.88;;;;;;;;;;5087763;28;20013;-92
2024/04/25 03:47:53;;;;;;;25.33;16.17;;;;;;;;;;5112992;27;20025;-92
2024/04/25 03:59:03;;;;;;;20.38;14.13;;;;;;;;;;5316868;27;20005;-92
2024/04/25 04:01:29;;;;;;;18.92;13.95;;;;;;;;;;5286481;27;20049;-92
2024/04/25 04:13:17;;;;;;;19.80;13.40;;;;;;;;;;5321080;27;20004;-91
2024/04/25 04:15:43;;;;;;;22.17;14.82;;;;;;;;;;5317416;27;20013;-93
2024/04/25 04:18:15;;;;;;;17.40;12.90;;;;;;;;;;5317690;27;20009;-93
2024/04/25 04:20:44;;;;;;;17.55;12.93;;;;;;;;;;5316356;27;20001;-93
2024/04/25 04:23:48;;;;;;;19.63;13.10;;;;;;;;;;5319744;26;20079;-90
2024/04/25 04:26:14;;;;;;;19.98;14.15;;;;;;;;;;5321658;26;19997;-92
2024/04/25 04:28:46;;;;;;;19.85;13.90;;;;;;;;;;5328276;26;20073;-92
2024/04/25 04:31:15;;;;;;;15.85;11.18;;;;;;;;;;5357013;26;20004;-94
2024/04/25 04:33:41;;;;;;;20.70;11.65;;;;;;;;;;5354224;21;20017;-91
2024/04/25 04:39:11;;;;;;;16.30;11.27;;;;;;;;;;5283940;27;20072;-92
2024/04/25 04:44:55;;;;;;;13.27;10.05;;;;;;;;;;5267367;27;20046;-93
2024/04/25 04:47:21;;;;;;;14.02;10.57;;;;;;;;;;5308759;27;20096;-93
2024/04/25 04:49:47;;;;;;;14.05;10.07;;;;;;;;;;5315826;27;20008;-94
2024/04/25 04:55:26;;;;;;;12.65;9.98;;;;;;;;;;5215280;27;20283;-91
2024/04/25 04:57:52;;;;;;;12.93;9.82;;;;;;;;;;5270983;27;20060;-93
2024/04/25 05:00:36;;;;;;;12.23;9.52;;;;;;;;;;5308557;27;20042;-93
2024/04/25 05:03:13;;;;;;;14.48;10.25;;;;;;;;;;5307934;27;20014;-94
2024/04/25 05:05:39;;;;;;;12.25;9.25;;;;;;;;;;5309140;27;19998;-91
2024/04/25 05:08:05;;;;;;;13.45;9.50;;;;;;;;;;5281889;27;20034;-92
2024/04/25 05:10:31;;;;;;;14.30;9.27;;;;;;;;;;5308290;27;20013;-93
2024/04/25 05:12:57;;;;;;;12.80;9.13;;;;;;;;;;5308585;27;20053;-92
2024/04/25 05:15:24;;;;;;;11.07;9.85;;;;;;;;;;5308292;27;20002;-92
2024/04/25 05:17:50;;;;;;;12.82;9.50;;;;;;;;;;5308865;27;20002;-92
2024/04/25 05:20:16;;;;;;;11.60;10.45;;;;;;;;;;5308779;27;20077;-93
2024/04/25 05:22:42;;;;;;;14.93;13.48;;;;;;;;;;5308740;27;20010;-93
2024/04/25 05:25:08;;;;;;;17.13;15.82;;;;;;;;;;5308585;27;20014;-94
2024/04/25 05:27:36;;;;;;;23.38;21.63;;;;;;;;;;5309389;27;20464;-93
2024/04/25 05:30:03;;;;;;;28.98;27.02;;;;;;;;;;5308598;27;20460;-90
2024/04/25 05:32:49;;;;;;;40.85;38.30;;;;;;;;;;5310865;27;20026;-92
2024/04/25 05:35:15;;;;;;;43.92;41.20;;;;;;;;;;5313599;26;20002;-92
2024/04/25 05:37:41;;;;;;;49.20;46.10;;;;;;;;;;5315997;27;20405;-93
2024/04/25 05:40:07;;;;;;;64.75;60.92;;;;;;;;;;5303796;27;20063;-93
2024/04/25 05:42:37;;;;;;;58.40;54.90;;;;;;;;;;5312121;27;20435;-94
2024/04/25 05:48:20;;;;;;;52.58;49.38;;;;;;;;;;5280647;27;20034;-91
2024/04/25 05:50:46;;;;;;;57.13;53.33;;;;;;;;;;5298477;27;20005;-91
2024/04/25 05:53:12;;;;;;;54.25;51.00;;;;;;;;;;5313610;27;20075;-91
2024/04/25 05:55:39;;;;;;;60.13;56.63;;;;;;;;;;5298389;27;20012;-91
2024/04/25 05:58:36;;;;;;;64.97;61.17;;;;;;;;;;5312958;27;20045;-91
2024/04/25 06:01:02;;;;;;;69.13;65.10;;;;;;;;;;5292418;27;20049;-92
2024/04/25 06:03:29;;;;;;;75.18;70.78;;;;;;;;;;5279250;27;20109;-92
2024/04/25 06:06:11;;;;;;;50.13;47.25;;;;;;;;;;5278719;27;20009;-92
2024/04/25 06:15:09;;;;;;;23.63;21.98;;;;;;;;;;5144277;27;20081;-93
2024/04/25 06:18:13;;;;;;;;;;;;;;;;;;;;;
2024/04/25 06:20:57;;;;;;;17.33;16.17;;;;;;;;;;5058058;28;20010;-93
2024/04/25 06:23:33;;;;;;;15.15;14.15;;;;;;;;;;5064200;28;20007;-91
2024/04/25 06:26:14;;;;;;;10.73;9.93;;;;;;;;;;5025356;28;20365;-92
2024/04/25 06:28:52;;;;;;;11.10;10.40;;;;;;;;;;5023989;28;20015;-93
2024/04/25 06:31:18;;;;;;;11.45;10.65;;;;;;;;;;5076320;27;20020;-92
2024/04/25 06:33:44;;;;;;;13.27;12.48;;;;;;;;;;5215366;27;20050;-92
2024/04/25 06:36:10;;;;;;;14.45;13.45;;;;;;;;;;5216767;27;19999;-91
2024/04/25 06:38:45;;;;;;;13.65;12.80;;;;;;;;;;5217914;27;19999;-94
2024/04/25 06:41:11;;;;;;;19.00;17.63;;;;;;;;;;5279224;27;20013;-92
2024/04/25 06:46:41;;;;;;;15.98;14.98;;;;;;;;;;5280862;27;20017;-92
2024/04/25 06:49:08;;;;;;;18.75;17.48;;;;;;;;;;5278242;27;20072;-94
2024/04/25 06:51:34;;;;;;;17.15;16.15;;;;;;;;;;5280395;27;20025;-93
2024/04/25 06:54:01;;;;;;;13.65;12.77;;;;;;;;;;5311581;27;20005;-92
2024/04/25 06:56:27;;;;;;;10.90;10.10;;;;;;;;;;5306817;27;20002;-92
2024/04/25 06:58:53;;;;;;;9.95;9.30;;;;;;;;;;5278882;27;20013;-92
2024/04/25 07:01:19;;;;;;;9.90;9.20;;;;;;;;;;5306788;27;20006;-90
2024/04/25 07:04:20;;;;;;;10.77;9.88;;;;;;;;;;5284514;27;20015;-96
2024/04/25 07:06:46;;;;;;;10.68;9.93;;;;;;;;;;5312610;27;19997;-92
2024/04/25 07:09:15;;;;;;;9.35;8.65;;;;;;;;;;5312633;27;20075;-92
2024/04/25 07:11:42;;;;;;;12.65;11.75;;;;;;;;;;5298719;27;20008;-92
2024/04/25 07:14:08;;;;;;;14.30;13.20;;;;;;;;;;5312638;27;19997;-92
2024/04/25 07:16:34;;;;;;;18.35;17.20;;;;;;;;;;5315683;26;20002;-91
2024/04/25 07:19:00;;;;;;;22.55;20.98;;;;;;;;;;5319182;26;19994;-91
2024/04/25 07:21:30;;;;;;;32.75;30.67;;;;;;;;;;5325271;27;20008;-93
2024/04/25 07:23:56;;;;;;;22.20;20.67;;;;;;;;;;5312436;27;20415;-91
2024/04/25 07:26:23;;;;;;;17.85;16.75;;;;;;;;;;5317116;27;20001;-93
2024/04/25 07:28:49;;;;;;;12.77;11.88;;;;;;;;;;5315716;27;20431;-92
2024/04/25 07:31:15;;;;;;;10.88;10.15;;;;;;;;;;5286393;27;20447;-93
2024/04/25 07:33:41;;;;;;;11.50;10.80;;;;;;;;;;5329144;22;20374;-92
2024/04/25 07:36:41;;;;;;;7.82;7.28;;;;;;;;;;5288580;27;19997;-92
2024/04/25 07:41:43;;;;;;;11.80;11.05;;;;;;;;;;5527051;21;20035;-91
2024/04/25 07:44:10;;;;;;;15.30;14.35;;;;;;;;;;5321783;26;19997;-91
2024/04/25 07:46:54;;;;;;;19.95;18.80;;;;;;;;;;5325339;26;20063;-91
2024/04/25 07:49:21;;;;;;;23.10;21.30;;;;;;;;;;5323424;26;20073;-91
2024/04/25 07:51:48;;;;;;;23.55;22.13;;;;;;;;;;5321267;26;20001;-91
2024/04/25 07:54:14;;;;;;;26.20;24.67;;;;;;;;;;5320373;26;20015;-89
2024/04/25 07:56:40;;;;;;;26.95;25.35;;;;;;;;;;5320800;26;20012;-94
2024/04/25 07:59:06;;;;;;;27.38;25.60;;;;;;;;;;5320199;26;20078;-91
2024/04/25 08:01:35;;;;;;;34.35;32.28;;;;;;;;;;5320512;26;20009;-91
2024/04/25 08:04:01;;;;;;;30.02;28.27;;;;;;;;;;5320339;26;20024;-88
2024/04/25 08:09:42;;;;;;;36.55;34.40;;;;;;;;;;5214459;27;20313;-92
2024/04/25 08:12:11;;;;;;;32.22;30.30;;;;;;;;;;5182082;27;20044;-91
2024/04/25 08:15:07;;;;;;;31.75;29.95;;;;;;;;;;5152867;27;20378;-92
2024/04/25 08:17:33;;;;;;;36.13;33.70;;;;;;;;;;5179197;27;20007;-93
2024/04/25 08:19:59;;;;;;;36.17;34.08;;;;;;;;;;5188000;27;20020;-92
2024/04/25 08:22:25;;;;;;;42.63;40.13;;;;;;;;;;5321974;26;20003;-91
2024/04/25 08:24:51;;;;;;;43.53;41.03;;;;;;;;;;5355123;26;20065;-92
2024/04/25 08:27:19;;;;;;;58.20;54.90;;;;;;;;;;5355183;26;20430;-93
2024/04/25 08:29:45;;;;;;;58.45;55.08;;;;;;;;;;5331265;26;20470;-92
2024/04/25 08:32:11;;;;;;;64.78;61.10;;;;;;;;;;5320748;26;19997;-92
2024/04/25 08:34:38;;;;;;;57.20;53.85;;;;;;;;;;5299711;27;20513;-92
2024/04/25 08:37:04;;;;;;;45.28;42.67;;;;;;;;;;5286523;27;19998;-93
2024/04/25 08:39:30;;;;;;;36.80;34.70;;;;;;;;;;5286290;27;20004;-93
2024/04/25 08:41:58;;;;;;;27.50;25.90;;;;;;;;;;5286052;27;20429;-93
2024/04/25 08:44:24;;;;;;;14.15;13.25;;;;;;;;;;5287131;26;20068;-93
2024/04/25 08:46:50;;;;;;;15.52;14.52;;;;;;;;;;5320570;26;20000;-93
2024/04/25 08:49:16;;;;;;;18.20;16.98;;;;;;;;;;5320191;26;19993;-90
2024/04/25 08:51:46;;;;;;;19.60;18.40;;;;;;;;;;5302461;27;20013;-94
2024/04/25 08:54:16;;;;;;;21.90;20.50;;;;;;;;;;5287456;27;20063;-93
2024/04/25 08:56:42;;;;;;;14.10;13.20;;;;;;;;;;5286719;27;19998;-93
2024/04/25 08:59:09;;;;;;;11.95;11.15;;;;;;;;;;5286700;27;20028;-93
2024/04/25 09:01:36;;;;;;;10.13;9.52;;;;;;;;;;5318292;26;19993;-92
2024/04/25 09:04:03;;;;;;;11.10;10.30;;;;;;;;;;5303717;27;20002;-91
2024/04/25 09:06:32;;;;;;;7.00;6.50;;;;;;;;;;5287138;27;20012;-93
2024/04/25 09:08:58;;;;;;;8.77;8.18;;;;;;;;;;5286073;27;20002;-92
2024/04/25 09:11:24;;;;;;;9.27;8.68;;;;;;;;;;5285856;27;19997;-92
2024/04/25 09:14:02;;;;;;;9.65;8.95;;;;;;;;;;5285581;27;20009;-91
2024/04/25 09:16:28;;;;;;;11.02;10.32;;;;;;;;;;5310606;26;20341;-92
2024/04/25 09:18:54;;;;;;;7.00;6.50;;;;;;;;;;5316582;26;20008;-92
2024/04/25 09:21:20;;;;;;;10.38;9.77;;;;;;;;;;5285922;27;20004;-91
2024/04/25 09:23:46;;;;;;;10.85;10.15;;;;;;;;;;5343895;22;20050;-92
2024/04/25 09:26:47;;;;;;;10.30;9.68;;;;;;;;;;5319645;26;20071;-93
2024/04/25 09:32:18;;;;;;;;;;;;;;;;;;5350746;26;20058;-96
2024/04/25 09:35:03;;;;;;;9.25;8.50;;;;;;;;;;5350139;26;19926;-95
2024/04/25 09:37:29;;;;;;;10.13;9.52;;;;;;;;;;5320076;26;20361;-92
2024/04/25 09:40:05;;;;;;;;;;;;;;;;;;;;;
2024/04/25 09:42:47;;;;;;;12.13;11.43;;;;;;;;;;5322508;26;20008;-94
2024/04/25 09:45:15;;;;;;;13.05;12.25;;;;;;;;;;5318937;26;20028;-93
2024/04/25 09:47:59;;;;;;;12.68;11.73;;;;;;;;;;5319533;26;20012;-93
2024/04/25 09:50:26;;;;;;;13.60;12.80;;;;;;;;;;5319398;26;19997;-94
2024/04/25 09:53:03;;;;;;;12.88;12.07;;;;;;;;;;5319520;26;20044;-91
2024/04/25 09:55:37;;;;;;;15.93;14.95;;;;;;;;;;5319791;26;20012;-94
2024/04/25 09:58:05;;;;;;;15.18;14.30;;;;;;;;;;5319765;26;20005;-92
2024/04/25 10:00:32;;;;;;;17.45;16.35;;;;;;;;;;5319233;26;20001;-93
2024/04/25 10:03:03;;;;;;;18.08;17.05;;;;;;;;;;5319537;26;20001;-91
2024/04/25 10:05:29;;;;;;;18.95;17.85;;;;;;;;;;5319178;26;20016;-92
2024/04/25 10:07:56;;;;;;;22.63;21.30;;;;;;;;;;5318868;26;20023;-93
2024/04/25 10:10:22;;;;;;;19.02;17.90;;;;;;;;;;5319351;26;20400;-92
2024/04/25 10:12:51;;;;;;;22.23;20.83;;;;;;;;;;5318878;26;20005;-93
2024/04/25 10:15:25;;;;;;;30.13;28.40;;;;;;;;;;5318808;26;19997;-94
2024/04/25 10:17:52;;;;;;;25.83;24.38;;;;;;;;;;5318958;26;19993;-94
2024/04/25 10:20:21;;;;;;;27.40;25.75;;;;;;;;;;5319219;26;20013;-93
2024/04/25 10:22:57;;;;;;;26.10;24.65;;;;;;;;;;5318970;26;20005;-92
2024/04/25 10:25:24;;;;;;;29.00;27.30;;;;;;;;;;5318954;26;20430;-93
2024/04/25 10:27:57;;;;;;;29.10;27.45;;;;;;;;;;5319485;26;20019;-92
2024/04/25 10:30:23;;;;;;;28.40;26.67;;;;;;;;;;5315689;26;20008;-94
2024/04/25 10:32:49;;;;;;;27.20;25.70;;;;;;;;;;5298806;27;20083;-92
2024/04/25 10:35:18;;;;;;;26.08;24.65;;;;;;;;;;5285171;27;19997;-95
2024/04/25 10:37:44;;;;;;;17.33;16.27;;;;;;;;;;5299378;27;20002;-94
2024/04/25 10:40:14;;;;;;;17.17;16.08;;;;;;;;;;5285209;27;20087;-95
2024/04/25 10:42:40;;;;;;;19.65;18.55;;;;;;;;;;5287912;27;20009;-95
2024/04/25 10:45:07;;;;;;;23.25;21.85;;;;;;;;;;5309977;26;20005;-94
2024/04/25 10:47:34;;;;;;;18.33;17.30;;;;;;;;;;5341631;26;20000;-95
2024/04/25 10:50:00;;;;;;;19.48;18.27;;;;;;;;;;5325862;26;20008;-95
2024/04/25 10:52:27;;;;;;;17.73;16.52;;;;;;;;;;5319156;26;19997;-94
2024/04/25 10:54:53;;;;;;;19.83;18.73;;;;;;;;;;5318966;26;20078;-95
2024/04/25 10:57:19;;;;;;;17.73;16.73;;;;;;;;;;5318949;26;20009;-94
2024/04/25 10:59:46;;;;;;;19.73;18.52;;;;;;;;;;5320181;26;20030;-93
2024/04/25 11:02:12;;;;;;;23.88;22.48;;;;;;;;;;5321375;26;20000;-94
2024/04/25 11:04:40;;;;;;;26.50;25.00;;;;;;;;;;5320859;26;20000;-95
2024/04/25 11:07:07;;;;;;;26.52;25.02;;;;;;;;;;5284440;27;20021;-94
2024/04/25 11:09:34;;;;;;;27.67;26.08;;;;;;;;;;5313061;27;20013;-94
2024/04/25 11:12:00;;;;;;;23.70;22.33;;;;;;;;;;5317257;26;19997;-96
2024/04/25 11:14:27;;;;;;;20.35;19.23;;;;;;;;;;5319069;26;20367;-95
2024/04/25 11:16:56;;;;;;;20.85;19.55;;;;;;;;;;5303245;27;20006;-96
2024/04/25 11:22:26;;;;;;;21.42;20.23;;;;;;;;;;5349065;26;20033;-94
2024/04/25 11:24:52;;;;;;;22.65;21.40;;;;;;;;;;5318470;26;20008;-95
2024/04/25 11:27:19;;;;;;;19.92;18.55;;;;;;;;;;5299768;27;20006;-94
2024/04/25 11:29:45;;;;;;;17.58;16.48;;;;;;;;;;5284416;27;20013;-95
2024/04/25 11:32:15;;;;;;;21.30;20.00;;;;;;;;;;5313968;26;20016;-94
2024/04/25 11:34:41;;;;;;;20.02;18.85;;;;;;;;;;5318628;26;20009;-94
2024/04/25 11:37:07;;;;;;;29.40;27.80;;;;;;;;;;5290121;26;20013;-94
2024/04/25 11:39:34;;;;;;;26.48;24.98;;;;;;;;;;5317935;26;20012;-92
2024/04/25 11:42:02;;;;;;;28.88;27.17;;;;;;;;;;5324846;26;20333;-92
2024/04/25 11:44:33;;;;;;;30.40;28.60;;;;;;;;;;5340982;21;20087;-94
2024/04/25 11:47:02;;;;;;;26.17;24.67;;;;;;;;;;5296229;26;20016;-94
2024/04/25 11:49:29;;;;;;;27.42;25.92;;;;;;;;;;5323985;26;20016;-93
2024/04/25 11:51:55;;;;;;;21.30;20.00;;;;;;;;;;5322016;26;20004;-94
2024/04/25 11:54:21;;;;;;;22.90;21.50;;;;;;;;;;5322186;26;20013;-95
2024/04/25 11:56:48;;;;;;;19.13;18.02;;;;;;;;;;5304299;27;20016;-94
2024/04/25 11:59:15;;;;;;;19.52;18.42;;;;;;;;;;5318152;27;20080;-94
2024/04/25 12:01:47;;;;;;;24.50;23.13;;;;;;;;;;5291021;27;20008;-95
2024/04/25 12:04:13;;;;;;;19.73;18.52;;;;;;;;;;5286547;27;20009;-95
2024/04/25 12:06:40;;;;;;;21.70;20.50;;;;;;;;;;5286405;27;20030;-95
2024/04/25 12:09:06;;;;;;;19.67;18.52;;;;;;;;;;5292229;26;20016;-94
2024/04/25 12:11:35;;;;;;;26.50;24.90;;;;;;;;;;5322124;26;20052;-94
2024/04/25 12:14:02;;;;;;;20.42;19.27;;;;;;;;;;5306429;27;20019;-96
2024/04/25 12:16:28;;;;;;;22.90;21.60;;;;;;;;;;5291256;27;20001;-95
2024/04/25 12:18:56;;;;;;;17.08;16.13;;;;;;;;;;5306915;26;20009;-94
2024/04/25 12:21:23;;;;;;;15.32;14.43;;;;;;;;;;5324718;26;20056;-95
2024/04/25 12:23:50;;;;;;;17.42;16.42;;;;;;;;;;5352523;26;20074;-95
2024/04/25 12:26:17;;;;;;;17.35;16.30;;;;;;;;;;5293321;26;20010;-95
2024/04/25 12:32:06;;;;;;;15.20;14.30;;;;;;;;;;5361594;26;20009;-94
2024/04/25 12:34:32;;;;;;;17.38;16.40;;;;;;;;;;5321188;26;20322;-94
2024/04/25 12:36:59;;;;;;;21.60;20.42;;;;;;;;;;5320637;26;20001;-94
2024/04/25 12:39:25;;;;;;;24.30;22.90;;;;;;;;;;5303256;27;20482;-95
2024/04/25 12:41:54;;;;;;;28.35;26.75;;;;;;;;;;5286908;27;20002;-94
2024/04/25 12:44:21;;;;;;;25.45;23.98;;;;;;;;;;5286010;27;20001;-93
2024/04/25 12:46:53;;;;;;;27.45;25.92;;;;;;;;;;5286294;27;20454;-96
2024/04/25 12:49:36;;;;;;;29.88;28.20;;;;;;;;;;5285909;27;20001;-95
2024/04/25 12:52:09;;;;;;;23.27;21.98;;;;;;;;;;5252980;27;20002;-93
2024/04/25 12:54:36;;;;;;;20.60;19.50;;;;;;;;;;5253047;27;19998;-95
2024/04/25 12:57:03;;;;;;;27.42;25.90;;;;;;;;;;5286196;27;20435;-94
2024/04/25 12:59:33;;;;;;;30.25;28.55;;;;;;;;;;5286339;27;19993;-94
2024/04/25 13:02:14;;;;;;;28.85;27.25;;;;;;;;;;5286874;27;20025;-95
2024/04/25 13:10:53;;;;;;;25.20;23.70;;;;;;;;;;5356891;21;20000;-94
2024/04/25 13:13:21;;;;;;;22.63;21.33;;;;;;;;;;5354677;26;20011;-95
2024/04/25 13:15:47;;;;;;;27.42;25.90;;;;;;;;;;5355164;26;20000;-94
2024/04/25 13:18:17;;;;;;;20.67;19.35;;;;;;;;;;5357341;26;20065;-96
2024/04/25 13:20:44;;;;;;;26.13;24.63;;;;;;;;;;5354234;26;19993;-96
2024/04/25 13:23:11;;;;;;;22.67;21.38;;;;;;;;;;5354609;26;19992;-96
2024/04/25 13:25:38;;;;;;;21.98;20.77;;;;;;;;;;5355582;26;19992;-95
2024/04/25 13:28:04;;;;;;;23.48;22.17;;;;;;;;;;5354691;26;20004;-95
2024/04/25 13:30:32;;;;;;;28.80;27.20;;;;;;;;;;5354911;26;19992;-95
2024/04/25 13:32:58;;;;;;;24.23;22.63;;;;;;;;;;5354300;26;20007;-95
2024/04/25 13:35:24;;;;;;;29.90;28.23;;;;;;;;;;5350746;26;20011;-95
2024/04/25 13:37:50;;;;;;;30.13;28.48;;;;;;;;;;5320080;26;20005;-96
2024/04/25 13:40:16;;;;;;;24.55;23.23;;;;;;;;;;5320532;26;19997;-96
2024/04/25 13:42:44;;;;;;;26.35;24.88;;;;;;;;;;5320609;26;20059;-96
2024/04/25 13:45:18;;;;;;;23.00;21.70;;;;;;;;;;5320424;26;20014;-96
2024/04/25 13:47:47;;;;;;;21.20;20.00;;;;;;;;;;5321203;26;20001;-96
2024/04/25 13:50:16;;;;;;;21.38;19.85;;;;;;;;;;5320288;26;20446;-96
2024/04/25 13:52:42;;;;;;;20.10;19.00;;;;;;;;;;5320141;26;19996;-94
2024/04/25 14:04:06;;;;;;;48.03;45.20;;;;;;;;;;5350168;26;20066;-93
2024/04/25 14:06:42;;;;;;;;;;;;;;;;;;;;;
2024/04/25 14:09:09;;;;;;;42.60;40.20;;;;;;;;;;5318158;26;19997;-94
2024/04/25 14:11:40;;;;;;;46.33;43.72;;;;;;;;;;5333609;26;20005;-94
2024/04/25 14:14:10;;;;;;;40.75;38.47;;;;;;;;;;5338024;26;20036;-94
2024/04/25 14:16:37;;;;;;;45.90;43.20;;;;;;;;;;5324174;26;20008;-93
2024/04/25 14:19:13;;;;;;;36.30;34.10;;;;;;;;;;5319943;26;20012;-96
2024/04/25 14:21:43;;;;;;;53.38;50.30;;;;;;;;;;5321241;26;20012;-94
2024/04/25 14:24:10;;;;;;;46.10;43.50;;;;;;;;;;5302456;27;20002;-93
2024/04/25 14:29:33;;;;;;;50.83;47.95;;;;;;;;;;5314901;26;20016;-93
2024/04/25 14:32:02;;;;;;;45.33;42.80;;;;;;;;;;5324749;26;20001;-91
2024/04/25 14:37:43;;;;;;;51.13;48.33;;;;;;;;;;5339587;26;20015;-93
2024/04/25 14:40:29;;;;;;;51.83;48.92;;;;;;;;;;5319187;26;20007;-92
2024/04/25 14:43:08;;;;;;;44.20;41.60;;;;;;;;;;5325657;26;20001;-96
2024/04/25 14:45:34;;;;;;;50.42;47.58;;;;;;;;;;5654179;21;20083;-95
2024/04/25 15:01:05;;;;;;;50.88;48.05;;;;;;;;;;6063749;22;19996;-93
2024/04/25 15:03:27;;;;;;;54.47;51.58;;;;;;;;;;5377278;26;20000;-95
2024/04/25 15:14:37;;;;;;;48.60;45.85;;;;;;;;;;5394921;21;1676957;-93
2024/04/25 15:17:06;;;;;;;59.75;56.50;;;;;;;;;;5319984;26;20012;-94
2024/04/25 15:19:51;;;;;;;66.28;62.67;;;;;;;;;;5321679;26;20017;-94
2024/04/25 15:22:20;;;;;;;63.38;59.88;;;;;;;;;;5332946;26;20015;-93
2024/04/25 15:27:31;;;;;;;47.47;44.83;;;;;;;;;;5319338;26;20338;-95
2024/04/25 15:29:58;;;;;;;58.60;55.45;;;;;;;;;;5319579;26;20021;-93
2024/04/25 15:32:24;;;;;;;54.30;51.40;;;;;;;;;;5312675;27;20021;-91
2024/04/25 15:34:50;;;;;;;52.97;50.03;;;;;;;;;;5319222;26;20001;-94
2024/04/25 15:37:25;;;;;;;55.35;52.35;;;;;;;;;;5291919;26;20017;-93
2024/04/25 15:42:27;;;;;;;57.00;53.80;;;;;;;;;;5537697;21;20008;-93
2024/04/25 15:44:54;;;;;;;58.38;55.15;;;;;;;;;;5353777;26;20012;-93
2024/04/25 15:47:20;;;;;;;57.13;54.03;;;;;;;;;;5328306;26;19997;-94
2024/04/25 15:49:46;;;;;;;60.90;57.60;;;;;;;;;;5322561;26;20426;-93
2024/04/25 15:52:20;;;;;;;57.03;53.92;;;;;;;;;;5321799;26;20047;-91
2024/04/25 15:54:48;;;;;;;48.88;46.25;;;;;;;;;;5323429;26;20128;-93
2024/04/25 15:57:14;;;;;;;58.28;54.97;;;;;;;;;;5358218;26;20019;-92
2024/04/25 15:59:44;;;;;;;59.75;56.47;;;;;;;;;;5371799;26;20007;-93
2024/04/25 16:02:19;;;;;;;54.42;51.40;;;;;;;;;;5356828;26;20000;-93
2024/04/25 16:04:46;;;;;;;52.90;49.85;;;;;;;;;;5356251;26;20000;-92
2024/04/25 16:07:12;;;;;;;62.38;59.00;;;;;;;;;;5355678;26;20506;-92
2024/04/25 16:09:45;;;;;;;55.13;52.13;;;;;;;;;;5356120;26;20433;-92
2024/04/25 16:12:11;;;;;;;61.78;58.33;;;;;;;;;;5356144;26;20371;-92
2024/04/25 16:14:38;;;;;;;57.83;54.60;;;;;;;;;;5355622;26;20011;-92
2024/04/25 16:17:07;;;;;;;55.30;52.22;;;;;;;;;;5352368;26;20115;-91
2024/04/25 16:19:55;;;;;;;63.72;60.20;;;;;;;;;;5320467;26;20074;-92
2024/04/25 16:22:21;;;;;;;65.70;61.88;;;;;;;;;;5320794;26;19997;-93
2024/04/25 16:24:47;;;;;;;63.28;59.88;;;;;;;;;;5320872;26;20013;-92
2024/04/25 16:27:17;;;;;;;65.82;62.13;;;;;;;;;;5321218;26;20009;-92
2024/04/25 16:32:56;;;;;;;60.53;57.22;;;;;;;;;;5318217;27;20004;-91
2024/04/25 16:35:32;;;;;;;61.80;58.45;;;;;;;;;;5317299;27;20427;-92
2024/04/25 16:38:30;;;;;;;64.13;60.58;;;;;;;;;;5313984;27;20025;-93
2024/04/25 16:40:56;;;;;;;53.10;50.08;;;;;;;;;;5306802;26;20015;-94
2024/04/25 16:45:53;;;;;;;56.97;53.72;;;;;;;;;;6436227;21;20009;-91
2024/04/25 16:50:50;;;;;;;55.72;52.63;;;;;;;;;;5546828;21;20003;-91
2024/04/25 16:53:16;;;;;;;66.68;62.38;;;;;;;;;;5312059;27;19998;-92
2024/04/25 16:55:42;;;;;;;56.22;52.88;;;;;;;;;;5320888;26;20443;-92
2024/04/25 16:58:13;;;;;;;57.97;54.75;;;;;;;;;;5323909;26;20008;-91
2024/04/25 17:00:40;;;;;;;57.03;53.90;;;;;;;;;;5321695;26;20430;-91
2024/04/25 17:03:06;;;;;;;47.92;45.20;;;;;;;;;;5290225;27;19998;-91
2024/04/25 17:05:36;;;;;;;61.17;57.67;;;;;;;;;;5287877;27;19997;-93
2024/04/25 17:08:03;;;;;;;76.07;71.68;;;;;;;;;;5288506;27;20016;-91
2024/04/25 17:10:29;;;;;;;68.05;64.28;;;;;;;;;;5297354;26;20005;-92
2024/04/25 17:12:55;;;;;;;62.38;58.97;;;;;;;;;;5298322;27;20012;-92
2024/04/25 17:15:22;;;;;;;56.30;53.10;;;;;;;;;;5287717;27;20001;-92
2024/04/25 17:18:23;;;;;;;63.92;60.20;;;;;;;;;;5303336;26;20363;-92
2024/04/25 17:21:12;;;;;;;49.53;46.75;;;;;;;;;;5245109;27;19998;-93
2024/04/25 17:23:59;;;;;;;54.55;51.35;;;;;;;;;;5188419;27;20365;-91
2024/04/25 17:26:47;;;;;;;51.20;48.33;;;;;;;;;;5316553;26;20339;-94
2024/04/25 17:29:13;;;;;;;47.25;43.95;;;;;;;;;;5319874;26;20001;-93
2024/04/25 17:31:40;;;;;;;56.25;53.05;;;;;;;;;;5320838;26;20001;-94
2024/04/25 17:34:34;;;;;;;52.67;49.72;;;;;;;;;;5320959;26;20001;-93
2024/04/25 17:37:01;;;;;;;55.97;52.83;;;;;;;;;;5316949;26;20001;-94
2024/04/25 17:39:27;;;;;;;55.60;52.45;;;;;;;;;;5320715;26;20043;-92
2024/04/25 17:42:13;;;;;;;50.88;47.97;;;;;;;;;;5321958;26;20026;-92
2024/04/25 17:44:42;;;;;;;51.08;48.17;;;;;;;;;;5298339;27;19998;-91
2024/04/25 17:47:11;;;;;;;52.22;49.22;;;;;;;;;;5286205;27;19998;-91
2024/04/25 17:49:57;;;;;;;53.78;50.63;;;;;;;;;;5285967;26;20052;-91
2024/04/25 17:52:23;;;;;;;48.25;45.35;;;;;;;;;;5285565;27;20423;-90
2024/04/25 17:54:49;;;;;;;39.40;37.13;;;;;;;;;;5285611;27;19993;-93
2024/04/25 17:57:16;;;;;;;51.13;48.20;;;;;;;;;;5285476;27;20009;-93